createdAt,value
2022-12-28T00:01:17.795Z,101049.00
2022-12-28T00:03:46.058Z,101044.00
2022-12-28T00:06:14.404Z,101047.00
2022-12-28T00:08:43.783Z,101045.00
2022-12-28T00:11:26.341Z,101034.00
2022-12-28T00:13:56.255Z,101033.00
2022-12-28T00:16:27.609Z,101032.00
2022-12-28T00:18:55.631Z,101021.00
2022-12-28T00:21:23.451Z,101008.00
2022-12-28T00:23:53.659Z,101008.00
2022-12-28T00:26:25.509Z,100999.00
2022-12-28T00:28:56.873Z,100995.00
2022-12-28T00:31:29.735Z,100979.00
2022-12-28T00:33:57.427Z,100989.00
2022-12-28T00:36:25.112Z,100990.00
2022-12-28T00:39:14.139Z,100993.00
2022-12-28T00:41:41.771Z,100990.00
2022-12-28T00:44:09.638Z,100985.00
2022-12-28T00:46:37.312Z,100988.00
2022-12-28T00:49:04.968Z,100974.00
2022-12-28T00:51:32.673Z,100984.00
2022-12-28T00:54:00.330Z,100967.00
2022-12-28T00:56:29.393Z,100968.00
2022-12-28T00:58:58.412Z,100965.00
2022-12-28T01:01:27.658Z,100952.00
2022-12-28T01:03:56.540Z,100942.00
2022-12-28T01:06:24.189Z,100938.00
2022-12-28T01:08:51.912Z,100925.00
2022-12-28T01:11:21.564Z,100919.00
2022-12-28T01:13:52.517Z,100917.00
2022-12-28T01:16:22.305Z,100900.00
2022-12-28T01:18:53.632Z,100911.00
2022-12-28T01:21:23.781Z,100926.00
2022-12-28T01:23:56.011Z,100917.00
2022-12-28T01:26:24.211Z,100913.00
2022-12-28T01:28:53.375Z,100905.00
2022-12-28T01:31:22.830Z,100909.00
2022-12-28T01:33:50.788Z,100906.00
2022-12-28T01:36:20.285Z,100910.00
2022-12-28T01:38:49.645Z,100913.00
2022-12-28T01:41:19.779Z,100914.00
2022-12-28T01:43:49.385Z,100912.00
2022-12-28T01:46:21.307Z,100895.00
2022-12-28T01:48:53.506Z,100886.00
2022-12-28T01:51:22.438Z,100893.00
2022-12-28T01:53:53.131Z,100884.00
2022-12-28T01:56:21.926Z,100878.00
2022-12-28T01:58:50.709Z,100856.00
2022-12-28T02:01:20.419Z,100849.00
2022-12-28T02:03:48.315Z,100834.00
2022-12-28T02:06:16.035Z,100843.00
2022-12-28T02:08:50.578Z,100834.00
2022-12-28T02:11:19.945Z,100844.00
2022-12-28T02:13:49.590Z,100831.00
2022-12-28T02:16:17.339Z,100824.00
2022-12-28T02:18:48.413Z,100826.00
2022-12-28T02:21:24.957Z,100814.00
2022-12-28T02:24:18.153Z,100810.00
2022-12-28T02:26:55.477Z,100810.00
2022-12-28T02:29:51.238Z,100795.00
2022-12-28T02:32:41.289Z,100802.00
2022-12-28T02:35:13.970Z,100790.00
2022-12-28T02:37:46.436Z,100798.00
2022-12-28T02:40:17.634Z,100783.00
2022-12-28T02:42:47.256Z,100776.00
2022-12-28T02:45:49.659Z,100779.00
2022-12-28T02:48:34.982Z,100770.00
2022-12-28T02:51:24.284Z,100758.00
2022-12-28T02:54:32.987Z,100745.00
2022-12-28T02:57:04.618Z,100749.00
2022-12-28T02:59:48.105Z,100749.00
2022-12-28T03:02:29.818Z,100743.00
2022-12-28T03:05:12.213Z,100744.00
2022-12-28T03:08:07.187Z,100737.00
2022-12-28T03:10:43.624Z,100735.00
2022-12-28T03:13:29.762Z,100741.00
2022-12-28T03:16:04.436Z,100713.00
2022-12-28T03:18:53.723Z,100719.00
2022-12-28T03:21:39.803Z,100713.00
2022-12-28T03:24:28.589Z,100694.00
2022-12-28T03:27:16.404Z,100685.00
2022-12-28T03:30:07.736Z,100678.00
2022-12-28T03:32:35.770Z,100673.00
2022-12-28T03:35:05.032Z,100658.00
2022-12-28T03:37:37.435Z,100671.00
2022-12-28T03:40:10.957Z,100679.00
2022-12-28T03:42:59.413Z,100668.00
2022-12-28T03:45:45.536Z,100659.00
2022-12-28T03:48:16.934Z,100668.00
2022-12-28T03:50:49.254Z,100656.00
2022-12-28T03:53:18.184Z,100661.00
2022-12-28T03:55:45.938Z,100644.00
2022-12-28T03:58:13.640Z,100645.00
2022-12-28T04:00:41.316Z,100648.00
2022-12-28T04:03:09.179Z,100642.00
2022-12-28T04:05:36.927Z,100627.00
2022-12-28T04:08:06.076Z,100609.00
2022-12-28T04:10:33.716Z,100602.00
2022-12-28T04:13:01.327Z,100605.00
2022-12-28T04:15:29.025Z,100591.00
2022-12-28T04:17:56.663Z,100583.00
2022-12-28T04:20:24.373Z,100583.00
2022-12-28T04:22:52.028Z,100573.00
2022-12-28T04:25:21.153Z,100559.00
2022-12-28T04:27:48.812Z,100569.00
2022-12-28T04:30:16.551Z,100557.00
2022-12-28T04:32:44.230Z,100541.00
2022-12-28T04:35:11.882Z,100540.00
2022-12-28T04:37:39.689Z,100534.00
2022-12-28T04:40:08.759Z,100519.00
2022-12-28T04:42:37.753Z,100525.00
2022-12-28T04:45:06.273Z,100498.00
2022-12-28T04:47:33.947Z,100499.00
2022-12-28T04:50:01.615Z,100509.00
2022-12-28T04:52:29.253Z,100496.00
2022-12-28T04:54:56.916Z,100502.00
2022-12-28T04:57:24.800Z,100487.00
2022-12-28T04:59:53.774Z,100500.00
2022-12-28T05:02:21.548Z,100490.00
2022-12-28T05:04:49.299Z,100489.00
2022-12-28T05:07:17.026Z,100481.00
2022-12-28T05:09:44.705Z,100479.00
2022-12-28T05:12:12.327Z,100477.00
2022-12-28T05:14:39.998Z,100475.00
2022-12-28T05:17:09.030Z,100463.00
2022-12-28T05:19:36.673Z,100466.00
2022-12-28T05:22:04.383Z,100472.00
2022-12-28T05:24:32.301Z,100468.00
2022-12-28T05:26:59.978Z,100451.00
2022-12-28T05:29:27.653Z,100455.00
2022-12-28T05:31:55.350Z,100446.00
2022-12-28T05:34:24.410Z,100453.00
2022-12-28T05:36:52.099Z,100444.00
2022-12-28T05:39:19.753Z,100439.00
2022-12-28T05:41:47.380Z,100443.00
2022-12-28T05:44:15.001Z,100443.00
2022-12-28T05:46:42.668Z,100425.00
2022-12-28T05:49:10.659Z,100435.00
2022-12-28T05:51:40.203Z,100436.00
2022-12-28T05:54:07.991Z,100442.00
2022-12-28T05:56:35.728Z,100423.00
2022-12-28T05:59:05.815Z,100413.00
2022-12-28T06:01:35.771Z,100422.00
2022-12-28T06:04:05.106Z,100415.00
2022-12-28T06:06:34.681Z,100414.00
2022-12-28T06:09:04.638Z,100403.00
2022-12-28T06:11:32.497Z,100405.00
2022-12-28T06:14:01.314Z,100404.00
2022-12-28T06:16:30.720Z,100400.00
2022-12-28T06:18:58.927Z,100410.00
2022-12-28T06:21:28.477Z,100392.00
2022-12-28T06:23:57.708Z,100389.00
2022-12-28T06:26:28.766Z,100388.00
2022-12-28T06:28:57.186Z,100392.00
2022-12-28T06:31:26.500Z,100372.00
2022-12-28T06:33:56.072Z,100381.00
2022-12-28T06:36:25.768Z,100385.00
2022-12-28T06:38:55.488Z,100377.00
2022-12-28T06:41:23.792Z,100379.00
2022-12-28T06:43:53.159Z,100367.00
2022-12-28T06:46:22.515Z,100367.00
2022-12-28T06:48:51.495Z,100370.00
2022-12-28T06:51:21.628Z,100351.00
2022-12-28T06:53:50.798Z,100355.00
2022-12-28T06:56:20.321Z,100363.00
2022-12-28T06:58:49.697Z,100360.00
2022-12-28T07:01:21.220Z,100358.00
2022-12-28T07:03:50.938Z,100373.00
2022-12-28T07:06:20.881Z,100362.00
2022-12-28T07:08:49.497Z,100362.00
2022-12-28T07:11:19.376Z,100376.00
2022-12-28T07:13:47.330Z,100365.00
2022-12-28T07:16:19.622Z,100366.00
2022-12-28T07:18:47.976Z,100354.00
2022-12-28T07:21:18.088Z,100349.00
2022-12-28T07:23:45.748Z,100370.00
2022-12-28T07:26:15.080Z,100357.00
2022-12-28T07:28:44.148Z,100354.00
2022-12-28T07:31:14.452Z,100363.00
2022-12-28T07:33:44.378Z,100359.00
2022-12-28T07:36:14.411Z,100357.00
2022-12-28T07:38:42.227Z,100362.00
2022-12-28T07:41:13.074Z,100354.00
2022-12-28T07:43:41.085Z,100353.00
2022-12-28T07:46:11.148Z,100365.00
2022-12-28T07:48:39.663Z,100368.00
2022-12-28T07:51:11.111Z,100358.00
2022-12-28T07:53:39.472Z,100368.00
2022-12-28T07:56:08.545Z,100355.00
2022-12-28T07:58:36.442Z,100344.00
2022-12-28T08:01:05.937Z,100362.00
2022-12-28T08:03:34.479Z,100347.00
2022-12-28T08:06:11.630Z,100360.00
2022-12-28T08:08:41.268Z,100363.00
2022-12-28T08:11:10.517Z,100359.00
2022-12-28T08:13:40.279Z,100366.00
2022-12-28T08:16:09.055Z,100349.00
2022-12-28T08:18:36.766Z,100349.00
2022-12-28T08:21:07.327Z,100363.00
2022-12-28T08:23:36.391Z,100349.00
2022-12-28T08:26:08.412Z,100353.00
2022-12-28T08:28:36.714Z,100353.00
2022-12-28T08:31:09.125Z,100349.00
2022-12-28T08:33:36.979Z,100336.00
2022-12-28T08:36:05.459Z,100342.00
2022-12-28T08:38:33.483Z,100340.00
2022-12-28T08:41:04.786Z,100323.00
2022-12-28T08:43:33.446Z,100334.00
2022-12-28T08:46:02.575Z,100336.00
2022-12-28T08:48:30.921Z,100341.00
2022-12-28T08:51:03.246Z,100346.00
2022-12-28T08:53:30.903Z,100355.00
2022-12-28T08:56:06.906Z,100352.00
2022-12-28T08:58:35.478Z,100351.00
2022-12-28T09:01:10.455Z,100360.00
2022-12-28T09:03:39.001Z,100366.00
2022-12-28T09:06:08.730Z,100365.00
2022-12-28T09:08:36.766Z,100366.00
2022-12-28T09:11:07.374Z,100365.00
2022-12-28T09:13:35.567Z,100352.00
2022-12-28T09:16:06.303Z,100356.00
2022-12-28T09:18:34.826Z,100363.00
2022-12-28T09:21:06.174Z,100367.00
2022-12-28T09:23:33.987Z,100364.00
2022-12-28T09:26:07.116Z,100355.00
2022-12-28T09:28:34.844Z,100357.00
2022-12-28T09:31:04.869Z,100350.00
2022-12-28T09:34:23.311Z,100355.00
2022-12-28T09:36:40.408Z,100359.00
2022-12-28T09:39:09.784Z,100361.00
2022-12-28T09:41:44.931Z,100363.00
2022-12-28T09:44:55.776Z,100367.00
2022-12-28T09:47:31.438Z,100367.00
2022-12-28T09:50:06.771Z,100373.00
2022-12-28T09:52:37.289Z,100365.00
2022-12-28T09:55:13.111Z,100369.00
2022-12-28T09:57:46.840Z,100355.00
2022-12-28T10:00:20.064Z,100362.00
2022-12-28T10:02:53.131Z,100357.00
2022-12-28T10:05:22.138Z,100349.00
2022-12-28T10:07:50.346Z,100355.00
2022-12-28T10:10:19.289Z,100346.00
2022-12-28T10:12:48.741Z,100339.00
2022-12-28T10:15:17.265Z,100346.00
2022-12-28T10:17:45.615Z,100345.00
2022-12-28T10:20:16.890Z,100325.00
2022-12-28T10:22:50.025Z,100340.00
2022-12-28T10:25:20.888Z,100341.00
2022-12-28T10:27:50.674Z,100333.00
2022-12-28T10:30:20.454Z,100337.00
2022-12-28T10:32:58.061Z,100321.00
2022-12-28T10:35:33.180Z,100318.00
2022-12-28T10:38:04.799Z,100332.00
2022-12-28T10:40:34.775Z,100322.00
2022-12-28T10:45:53.173Z,100321.00
2022-12-28T10:48:24.936Z,100320.00
2022-12-28T10:50:54.815Z,100308.00
2022-12-28T10:53:31.112Z,100317.00
2022-12-28T10:56:08.267Z,100318.00
2022-12-28T10:58:37.324Z,100326.00
2022-12-28T11:01:07.359Z,100315.00
2022-12-28T11:03:20.641Z,100325.00
2022-12-28T11:03:37.290Z,100314.00
2022-12-28T11:06:14.655Z,100304.00
2022-12-28T11:08:43.876Z,100303.00
2022-12-28T11:11:22.397Z,100323.00
2022-12-28T11:13:56.340Z,100292.00
2022-12-28T11:16:24.004Z,100303.00
2022-12-28T11:18:52.202Z,100294.00
2022-12-28T11:21:22.006Z,100302.00
2022-12-28T11:23:51.380Z,100296.00
2022-12-28T11:26:19.984Z,100296.00
2022-12-28T11:28:51.455Z,100298.00
2022-12-28T11:31:24.484Z,100288.00
2022-12-28T11:33:55.177Z,100292.00
2022-12-28T11:36:25.560Z,100312.00
2022-12-28T11:38:55.096Z,100302.00
2022-12-28T11:41:51.250Z,100298.00
2022-12-28T11:44:54.367Z,100301.00
2022-12-28T11:47:33.049Z,100289.00
2022-12-28T11:50:39.652Z,100281.00
2022-12-28T11:53:22.515Z,100282.00
2022-12-28T11:56:06.853Z,100278.00
2022-12-28T11:59:15.793Z,100263.00
2022-12-28T12:01:54.252Z,100261.00
2022-12-28T12:04:38.222Z,100260.00
2022-12-28T12:07:45.538Z,100270.00
2022-12-28T12:10:36.679Z,100264.00
2022-12-28T12:13:44.301Z,100264.00
2022-12-28T12:16:22.475Z,100257.00
2022-12-28T12:18:53.174Z,100251.00
2022-12-28T12:21:32.012Z,100251.00
2022-12-28T12:24:09.308Z,100262.00
2022-12-28T12:26:40.790Z,100251.00
2022-12-28T12:29:16.900Z,100259.00
2022-12-28T12:31:48.466Z,100233.00
2022-12-28T12:34:20.971Z,100245.00
2022-12-28T12:37:13.592Z,100236.00
2022-12-28T12:39:58.554Z,100244.00
2022-12-28T12:42:34.186Z,100245.00
2022-12-28T12:45:15.215Z,100254.00
2022-12-28T12:47:57.241Z,100246.00
2022-12-28T12:50:36.141Z,100240.00
2022-12-28T12:53:24.050Z,100238.00
2022-12-28T12:56:00.271Z,100241.00
2022-12-28T12:58:33.725Z,100233.00
2022-12-28T13:01:20.164Z,100241.00
2022-12-28T13:03:49.618Z,100228.00
2022-12-28T13:06:20.081Z,100225.00
2022-12-28T13:08:52.604Z,100223.00
2022-12-28T13:11:21.863Z,100217.00
2022-12-28T13:13:55.045Z,100222.00
2022-12-28T13:16:24.608Z,100220.00
2022-12-28T13:18:57.673Z,100221.00
2022-12-28T13:21:26.649Z,100217.00
2022-12-28T13:23:56.001Z,100205.00
2022-12-28T13:26:27.943Z,100204.00
2022-12-28T13:28:59.652Z,100198.00
2022-12-28T13:31:34.426Z,100207.00
2022-12-28T13:34:04.649Z,100205.00
2022-12-28T13:36:32.591Z,100197.00
2022-12-28T13:39:11.356Z,100201.00
2022-12-28T13:41:49.104Z,100184.00
2022-12-28T13:44:35.652Z,100201.00
2022-12-28T13:47:07.965Z,100181.00
2022-12-28T13:49:41.688Z,100194.00
2022-12-28T13:52:13.574Z,100197.00
2022-12-28T13:54:47.666Z,100188.00
2022-12-28T13:57:45.702Z,100192.00
2022-12-28T14:00:07.824Z,100192.00
2022-12-28T14:02:36.179Z,100191.00
2022-12-28T14:05:04.065Z,100181.00
2022-12-28T14:07:31.921Z,100193.00
2022-12-28T14:10:01.244Z,100183.00
2022-12-28T14:12:30.079Z,100186.00
2022-12-28T14:14:59.172Z,100185.00
2022-12-28T14:17:27.733Z,100192.00
2022-12-28T14:19:57.600Z,100175.00
2022-12-28T14:22:27.461Z,100180.00
2022-12-28T14:25:05.931Z,100180.00
2022-12-28T14:27:36.748Z,100175.00
2022-12-28T14:30:06.646Z,100168.00
2022-12-28T14:32:40.618Z,100182.00
2022-12-28T14:35:18.762Z,100160.00
2022-12-28T14:37:51.038Z,100174.00
2022-12-28T14:40:27.775Z,100174.00
2022-12-28T14:42:56.861Z,100179.00
2022-12-28T14:46:05.297Z,100183.00
2022-12-28T14:48:33.687Z,100173.00
2022-12-28T14:51:02.857Z,100169.00
2022-12-28T14:53:31.238Z,100172.00
2022-12-28T14:56:04.835Z,100170.00
2022-12-28T14:58:38.974Z,100174.00
2022-12-28T15:01:09.711Z,100168.00
2022-12-28T15:03:51.266Z,100168.00
2022-12-28T15:06:20.692Z,100160.00
2022-12-28T15:08:50.025Z,100160.00
2022-12-28T15:11:20.458Z,100154.00
2022-12-28T15:13:48.624Z,100153.00
2022-12-28T15:16:17.991Z,100149.00
2022-12-28T15:18:46.382Z,100152.00
2022-12-28T15:21:15.650Z,100153.00
2022-12-28T15:23:45.601Z,100159.00
2022-12-28T15:26:14.698Z,100153.00
2022-12-28T15:28:44.655Z,100143.00
2022-12-28T15:31:15.023Z,100139.00
2022-12-28T15:33:42.712Z,100134.00
2022-12-28T15:36:17.309Z,100131.00
2022-12-28T15:38:46.039Z,100132.00
2022-12-28T15:41:27.657Z,100132.00
2022-12-28T15:43:56.856Z,100136.00
2022-12-28T15:46:24.581Z,100136.00
2022-12-28T15:48:52.334Z,100139.00
2022-12-28T15:51:19.995Z,100127.00
2022-12-28T15:53:47.683Z,100129.00
2022-12-28T15:56:22.241Z,100121.00
2022-12-28T15:58:49.952Z,100125.00
2022-12-28T16:01:19.085Z,100120.00
2022-12-28T16:03:49.632Z,100117.00
2022-12-28T16:06:17.342Z,100113.00
2022-12-28T16:08:45.014Z,100117.00
2022-12-28T16:11:14.753Z,100106.00
2022-12-28T16:13:42.518Z,100117.00
2022-12-28T16:16:13.084Z,100109.00
2022-12-28T16:18:42.121Z,100106.00
2022-12-28T16:21:11.190Z,100107.00
2022-12-28T16:23:40.124Z,100110.00
2022-12-28T16:26:09.628Z,100113.00
2022-12-28T16:28:38.328Z,100114.00
2022-12-28T16:31:06.565Z,100111.00
2022-12-28T16:33:34.405Z,100105.00
2022-12-28T16:36:03.455Z,100099.00
2022-12-28T16:38:31.116Z,100104.00
2022-12-28T16:40:58.799Z,100110.00
2022-12-28T16:43:26.463Z,100094.00
2022-12-28T16:45:54.137Z,100087.00
2022-12-28T16:48:21.845Z,100086.00
2022-12-28T16:50:58.183Z,100087.00
2022-12-28T16:53:27.668Z,100077.00
2022-12-28T16:55:55.384Z,100073.00
2022-12-28T16:58:23.025Z,100061.00
2022-12-28T17:00:50.781Z,100060.00
2022-12-28T17:03:18.565Z,100061.00
2022-12-28T17:05:49.870Z,100053.00
2022-12-28T17:08:17.965Z,100045.00
2022-12-28T17:10:47.175Z,100043.00
2022-12-28T17:13:16.215Z,100041.00
2022-12-28T17:15:45.788Z,100038.00
2022-12-28T17:18:13.640Z,100031.00
2022-12-28T17:20:41.890Z,100023.00
2022-12-28T17:23:09.667Z,100020.00
2022-12-28T17:25:37.715Z,100015.00
2022-12-28T17:28:06.825Z,100021.00
2022-12-28T17:30:34.755Z,100012.00
2022-12-28T17:33:02.479Z,100014.00
2022-12-28T17:35:30.213Z,100004.00
2022-12-28T17:37:58.258Z,100003.00
2022-12-28T17:40:25.969Z,99991.00
2022-12-28T17:42:53.609Z,99986.00
2022-12-28T17:45:22.644Z,99987.00
2022-12-28T17:47:50.304Z,99980.00
2022-12-28T17:50:18.140Z,99983.00
2022-12-28T17:52:45.957Z,99983.00
2022-12-28T17:55:13.650Z,99965.00
2022-12-28T17:57:41.296Z,99959.00
2022-12-28T18:00:10.637Z,99955.00
2022-12-28T18:02:39.954Z,99960.00
2022-12-28T18:05:08.530Z,99953.00
2022-12-28T18:07:36.229Z,99953.00
2022-12-28T18:10:04.340Z,99935.00
2022-12-28T18:12:32.028Z,99929.00
2022-12-28T18:14:59.704Z,99922.00
2022-12-28T18:17:27.349Z,99929.00
2022-12-28T18:19:56.432Z,99929.00
2022-12-28T18:22:24.351Z,99926.00
2022-12-28T18:24:53.477Z,99923.00
2022-12-28T18:27:21.184Z,99912.00
2022-12-28T18:29:48.849Z,99912.00
2022-12-28T18:32:16.529Z,99900.00
2022-12-28T18:34:44.170Z,99899.00
2022-12-28T18:37:13.208Z,99889.00
2022-12-28T18:39:40.927Z,99879.00
2022-12-28T18:42:08.568Z,99883.00
2022-12-28T18:44:36.675Z,99877.00
2022-12-28T18:47:04.522Z,99891.00
2022-12-28T18:49:32.240Z,99872.00
2022-12-28T18:52:01.249Z,99871.00
2022-12-28T18:54:30.393Z,99869.00
2022-12-28T18:56:58.116Z,99868.00
2022-12-28T18:59:25.923Z,99881.00
2022-12-28T19:02:06.582Z,99866.00
2022-12-28T19:04:35.080Z,99859.00
2022-12-28T19:07:03.006Z,99864.00
2022-12-28T19:09:32.229Z,99874.00
2022-12-28T19:12:00.156Z,99859.00
2022-12-28T19:14:27.932Z,99861.00
2022-12-28T19:16:55.587Z,99855.00
2022-12-28T19:19:23.329Z,99845.00
2022-12-28T19:21:56.585Z,99850.00
2022-12-28T19:24:26.251Z,99849.00
2022-12-28T19:26:55.239Z,99847.00
2022-12-28T19:29:24.698Z,99858.00
2022-12-28T19:31:52.688Z,99852.00
2022-12-28T19:34:20.353Z,99849.00
2022-12-28T19:36:48.140Z,99841.00
2022-12-28T19:39:16.067Z,99853.00
2022-12-28T19:41:43.788Z,99854.00
2022-12-28T19:44:14.505Z,99845.00
2022-12-28T19:46:42.304Z,99835.00
2022-12-28T19:49:10.836Z,99821.00
2022-12-28T19:51:38.502Z,99817.00
2022-12-28T19:54:06.451Z,99818.00
2022-12-28T19:56:34.555Z,99806.00
2022-12-28T19:59:06.737Z,99799.00
2022-12-28T20:01:38.280Z,99804.00
2022-12-28T20:04:12.952Z,99802.00
2022-12-28T20:06:42.908Z,99798.00
2022-12-28T20:09:11.087Z,99787.00
2022-12-28T20:11:38.793Z,99789.00
2022-12-28T20:14:07.124Z,99782.00
2022-12-28T20:16:36.536Z,99788.00
2022-12-28T20:19:06.755Z,99781.00
2022-12-28T20:21:34.870Z,99767.00
2022-12-28T20:24:03.038Z,99761.00
2022-12-28T20:26:30.917Z,99751.00
2022-12-28T20:29:00.687Z,99755.00
2022-12-28T20:31:29.030Z,99747.00
2022-12-28T20:33:58.385Z,99739.00
2022-12-28T20:36:27.877Z,99754.00
2022-12-28T20:38:56.047Z,99733.00
2022-12-28T20:41:43.619Z,99742.00
2022-12-28T20:44:12.900Z,99736.00
2022-12-28T20:46:41.714Z,99734.00
2022-12-28T20:49:11.165Z,99722.00
2022-12-28T20:51:39.092Z,99733.00
2022-12-28T20:54:07.181Z,99721.00
2022-12-28T20:56:38.244Z,99716.00
2022-12-28T20:59:06.261Z,99719.00
2022-12-28T21:01:36.414Z,99706.00
2022-12-28T21:04:04.581Z,99705.00
2022-12-28T21:06:34.151Z,99706.00
2022-12-28T21:09:01.951Z,99707.00
2022-12-28T21:11:31.033Z,99702.00
2022-12-28T21:13:58.714Z,99694.00
2022-12-28T21:16:26.583Z,99683.00
2022-12-28T21:18:54.271Z,99685.00
2022-12-28T21:21:22.918Z,99672.00
2022-12-28T21:23:52.627Z,99658.00
2022-12-28T21:26:21.428Z,99660.00
2022-12-28T21:28:49.505Z,99668.00
2022-12-28T21:31:17.248Z,99653.00
2022-12-28T21:33:44.888Z,99650.00
2022-12-28T21:36:15.916Z,99649.00
2022-12-28T21:38:44.624Z,99644.00
2022-12-28T21:41:15.086Z,99647.00
2022-12-28T21:43:42.954Z,99628.00
2022-12-28T21:46:14.363Z,99641.00
2022-12-28T21:48:43.279Z,99639.00
2022-12-28T21:51:31.086Z,99627.00
2022-12-28T21:53:59.429Z,99618.00
2022-12-28T21:56:28.566Z,99622.00
2022-12-28T21:58:56.731Z,99612.00
2022-12-28T22:01:42.095Z,99614.00
2022-12-28T22:04:30.328Z,99605.00
2022-12-28T22:06:58.196Z,99601.00
2022-12-28T22:09:44.017Z,99598.00
2022-12-28T22:12:31.559Z,99611.00
2022-12-28T22:15:13.295Z,99611.00
2022-12-28T22:17:41.092Z,99610.00
2022-12-28T22:20:10.645Z,99602.00
2022-12-28T22:22:39.221Z,99604.00
2022-12-28T22:25:07.163Z,99594.00
2022-12-28T22:27:36.192Z,99606.00
2022-12-28T22:30:04.674Z,99600.00
2022-12-28T22:32:32.321Z,99588.00
2022-12-28T22:34:59.980Z,99590.00
2022-12-28T22:37:27.660Z,99586.00
2022-12-28T22:39:55.359Z,99584.00
2022-12-28T22:42:23.015Z,99589.00
2022-12-28T22:44:52.066Z,99593.00
2022-12-28T22:47:19.754Z,99593.00
2022-12-28T22:49:47.478Z,99590.00
2022-12-28T22:52:15.196Z,99595.00
2022-12-28T22:54:42.844Z,99594.00
2022-12-28T22:57:10.530Z,99584.00
2022-12-28T22:59:38.187Z,99599.00
2022-12-28T23:02:07.418Z,99596.00
2022-12-28T23:04:35.311Z,99600.00
2022-12-28T23:07:04.140Z,99591.00
2022-12-28T23:09:32.315Z,99591.00
2022-12-28T23:12:00.156Z,99587.00
2022-12-28T23:14:45.452Z,99586.00
2022-12-28T23:17:16.009Z,99589.00
2022-12-28T23:20:02.136Z,99579.00
2022-12-28T23:22:50.070Z,99589.00
2022-12-28T23:25:37.436Z,99572.00
2022-12-28T23:28:08.342Z,99567.00
2022-12-28T23:30:38.873Z,99556.00
2022-12-28T23:33:08.119Z,99547.00
2022-12-28T23:35:35.789Z,99552.00
2022-12-28T23:38:03.461Z,99537.00
2022-12-28T23:40:31.419Z,99539.00
2022-12-28T23:42:59.086Z,99535.00
2022-12-28T23:45:26.772Z,99527.00
2022-12-28T23:47:55.321Z,99518.00
2022-12-28T23:50:24.538Z,99519.00
2022-12-28T23:52:52.211Z,99516.00
2022-12-28T23:55:19.886Z,99521.00
2022-12-28T23:57:47.533Z,99522.00
